WetterOnline ( https://www.wetteronline.de )

Wetter aktuell Lasa

Aktuelles Wetter: Reschenpass (1461m)

6-stündlich | Neueste Meldungen
Ortszeit Temperatur Wetter
Mo, 10.08. 14:00 22.0° C wolkig
Mo, 10.08. 8:00 13.0° C wolkenlos
Mo, 10.08. 2:00 15.4° C wolkenlos
So, 09.08. 20:00 20.0° C wolkenlos
So, 09.08. 14:00 23.4° C wolkenlos
So, 09.08. 8:00 13.0° C wolkenlos
So, 09.08. 2:00 14.8° C wolkenlos
Sa, 08.08. 20:00 20.0° C fast wolkenlos
Ortszeit Temperatur Wetter
Mo, 10.08. 18:00 20.6° C wolkig
Mo, 10.08. 17:55 21° C bewölkt
Mo, 10.08. 17:00 20.6° C wolkig
Mo, 10.08. 16:55 21° C bewölkt
Mo, 10.08. 16:00 21.0° C wolkig
Mo, 10.08. 15:55 21° C bewölkt
Mo, 10.08. 15:00 21.8° C wolkig
Mo, 10.08. 14:55 22° C bewölkt
Mo, 10.08. 14:00 22.0° C wolkig
Ortszeit Relative Feuchte Sichtweite
Mo, 10.08. 14:00 68% 20 km
Mo, 10.08. 8:00 99% 10 km
Mo, 10.08. 2:00 91% 10 km
So, 09.08. 20:00 66% 10 km
So, 09.08. 14:00 58% 10 km
So, 09.08. 8:00 96% 20 km
So, 09.08. 2:00 87% 10 km
Sa, 08.08. 20:00 62% 20 km
Ortszeit Relative Feuchte Sichtweite
Mo, 10.08. 18:00 74% 20 km
Mo, 10.08. 17:55 73% >10 km
Mo, 10.08. 17:00 74% 20 km
Mo, 10.08. 16:55 73% >10 km
Mo, 10.08. 16:00 77% 20 km
Mo, 10.08. 15:55 78% >10 km
Mo, 10.08. 15:00 74% 20 km
Mo, 10.08. 14:55 73% >10 km
Mo, 10.08. 14:00 68% 20 km
Ortszeit Niederschlagsmenge Niederschlagsart
Mo, 10.08. 14:00 0.0 l/m2 in 6 Std. -
Mo, 10.08. 8:00 0.0 l/m2 in 12 Std. -
Mo, 10.08. 2:00 0.0 l/m2 in 6 Std. -
So, 09.08. 20:00 0.0 l/m2 in 12 Std. -
So, 09.08. 14:00 0.0 l/m2 in 6 Std. -
So, 09.08. 8:00 0.0 l/m2 in 12 Std. -
So, 09.08. 2:00 0.0 l/m2 in 6 Std. -
Sa, 08.08. 20:00 0.0 l/m2 in 12 Std. -
Ortszeit Niederschlagsmenge Niederschlagsart
Mo, 10.08. 18:00 keine Meldung -
Mo, 10.08. 17:55 keine Meldung -
Mo, 10.08. 17:00 keine Meldung -
Mo, 10.08. 16:55 keine Meldung -
Mo, 10.08. 16:00 keine Meldung -
Mo, 10.08. 15:55 keine Meldung -
Mo, 10.08. 15:00 keine Meldung -
Mo, 10.08. 14:55 keine Meldung -
Mo, 10.08. 14:00 keine Meldung -
Ortszeit Stärke Spitze Richtung
km/h Bft. km/h Grad Sektor
Mo, 10.08. 14:00 13 3 - 190° S
Mo, 10.08. 8:00 0 0 - - -
Mo, 10.08. 2:00 0 0 - - -
So, 09.08. 20:00 0 0 - - -
So, 09.08. 14:00 11 2 - 180° S
So, 09.08. 8:00 7 2 - 30° NO
So, 09.08. 2:00 4 1 - 30° NO
Sa, 08.08. 20:00 4 1 - 100° O
Ortszeit Stärke Spitze Richtung
km/h Bft. km/h Grad Sektor
Mo, 10.08. 18:00 11 2 - 140° SO
Mo, 10.08. 17:55 11 2 - 140° SO
Mo, 10.08. 17:00 9 2 - 160° S
Mo, 10.08. 16:55 9 2 - 160° S
Mo, 10.08. 16:00 13 3 - 150° SO
Mo, 10.08. 15:55 13 3 - 150° SO
Mo, 10.08. 15:00 13 3 - 180° S
Mo, 10.08. 14:55 13 3 - 180° S
Mo, 10.08. 14:00 13 3 - 190° S
Ortszeit Untergrenze Bedeckung Gattung
total tief tief mittel hoch
Mo, 10.08. 14:00 750 m 5/8 2/8 Cu Ac -
Mo, 10.08. 8:00 - 0/8 0/8 - - -
Mo, 10.08. 2:00 - 0/8 0/8 - - -
So, 09.08. 20:00 - 0/8 0/8 - - -
So, 09.08. 14:00 - 0/8 0/8 - - -
So, 09.08. 8:00 - 0/8 0/8 - - -
So, 09.08. 2:00 - 0/8 0/8 - - -
Sa, 08.08. 20:00 2400 m 1/8 1/8 - Ac -
Ortszeit Bedeckungsgrad in Achtel und Wolkenuntergrenze
Mo, 10.08. 18:00 2(750m) 5(1200m)
Mo, 10.08. 17:55 1-2(750m) 5-7(1200m)
Mo, 10.08. 17:00 3(750m) 5(1500m)
Mo, 10.08. 16:55 3-4(750m) 5-7(1500m)
Mo, 10.08. 16:00 2(900m) 5(1200m)
Mo, 10.08. 15:55 1-2(900m) 5-7(1200m)
Mo, 10.08. 15:00 2(750m) 5(900m)
Mo, 10.08. 14:55 1-2(750m) 5-7(900m)
Mo, 10.08. 14:00 2(750m) 5(1500m)
Ortszeit Stationsdruck (hPa) Tendenz (hPa in 3 Std.)
Mo, 10.08. 14:00 859 - 1,0
Mo, 10.08. 8:00 860 0,0
Mo, 10.08. 2:00 860 0,0
So, 09.08. 20:00 858 - 1,0
So, 09.08. 14:00 860 - 1,9
So, 09.08. 8:00 862 0,0
So, 09.08. 2:00 862 + 0,3
Sa, 08.08. 20:00 861 0,0
Ortszeit Stationsdruck (hPa) Tendenz (hPa in 3 Std.)
Mo, 10.08. 18:00 858 - 0,4
Mo, 10.08. 17:55 - keine Meldung
Mo, 10.08. 17:00 858 - 1,0
Mo, 10.08. 16:55 - keine Meldung
Mo, 10.08. 16:00 858 - 1,0
Mo, 10.08. 15:55 - keine Meldung
Mo, 10.08. 15:00 858 - 1,0
Mo, 10.08. 14:55 - keine Meldung
Mo, 10.08. 14:00 859 - 1,0
Ortszeit Schneehöhe (cm)
Mo, 10.08. 14:00 -
Mo, 10.08. 8:00 -
Mo, 10.08. 2:00 -
So, 09.08. 20:00 -
So, 09.08. 14:00 -
So, 09.08. 8:00 0
So, 09.08. 2:00 -
Sa, 08.08. 20:00 -
Ortszeit Schneehöhe (cm)
Mo, 10.08. 18:00 -
Mo, 10.08. 17:55 -
Mo, 10.08. 17:00 -
Mo, 10.08. 16:55 -
Mo, 10.08. 16:00 -
Mo, 10.08. 15:55 -
Mo, 10.08. 15:00 -
Mo, 10.08. 14:55 -
Mo, 10.08. 14:00 -
Link zu dieser Seite / Seite empfehlen

Das Wetter in ...